Terminal Aerodrome Forecast
Issued by NWS Sioux Falls, SD

Home | Current Version | Previous Version | Graphics & Text | Print | Product List | Glossary Off
Versions: 1 2 3 4 5 6 7 8 9 10 11 12 13 14 15 16 17 18

231
FTUS43 KFSD 161725
TAFHON
TAF
KHON 161725Z 1618/1718 34007KT P6SM OVC020
     FM162200 35009KT P6SM OVC030
     FM171400 32003KT P6SM BKN045=

USA.gov is the U.S. government's official web portal to all federal, state and local government web resources and services.